Time;durP1;ratioP1;P1;durP2;ratioP2;P2;SDS_P1;SDS_P2;PMS_P1;PMS_P2;Temp;Humidity;BMP_temperature;BMP_pressure;BME280_temperature;BME280_humidity;BME280_pressure;Samples;Min_cycle;Max_cycle;Signal;HPM_P1;HPM_P2
2022/03/19 00:02:44;;;;;;;9.90;6.97;;;;;;;11.03;32.96;103295.63;10375674;28;20275;-84
2022/03/19 00:07:47;;;;;;;8.43;7.13;;;;;;;11.29;32.67;103297.41;10372654;28;20741;-86
2022/03/19 00:12:49;;;;;;;10.00;6.80;;;;;;;10.37;34.30;103310.34;10390683;28;20197;-83
2022/03/19 00:17:54;;;;;;;9.17;6.90;;;;;;;10.68;33.65;103302.91;10375544;28;20263;-84
2022/03/19 00:22:56;;;;;;;12.47;8.60;;;;;;;10.45;33.83;103300.50;10365554;28;20280;-84
2022/03/19 00:27:58;;;;;;;11.83;7.87;;;;;;;10.87;33.06;103293.91;10363715;28;20197;-85
2022/03/19 00:33:00;;;;;;;11.43;7.83;;;;;;;11.04;33.11;103297.34;10349808;28;20247;-84
2022/03/19 00:38:04;;;;;;;12.13;7.83;;;;;;;10.70;33.23;103295.00;10348517;28;20205;-84
2022/03/19 00:43:06;;;;;;;9.10;7.43;;;;;;;10.21;33.89;103285.13;10367311;28;20507;-84
2022/03/19 00:48:08;;;;;;;12.03;7.80;;;;;;;10.26;34.26;103283.16;10350903;28;20270;-85
2022/03/19 00:53:10;;;;;;;10.37;7.90;;;;;;;10.58;33.69;103288.72;10366006;28;20275;-83
2022/03/19 00:58:13;;;;;;;10.07;7.77;;;;;;;10.00;34.57;103290.66;10385170;28;20225;-84
2022/03/19 01:03:15;;;;;;;9.47;8.07;;;;;;;9.98;34.51;103292.88;10365700;28;20224;-85
2022/03/19 01:08:18;;;;;;;11.20;7.80;;;;;;;9.91;35.11;103288.63;10365021;28;20224;-85
2022/03/19 01:13:20;;;;;;;12.93;8.57;;;;;;;10.24;33.99;103278.91;10362435;28;20201;-84
2022/03/19 01:18:23;;;;;;;10.77;8.40;;;;;;;10.05;34.55;103276.56;10371944;28;20233;-85
2022/03/19 01:23:26;;;;;;;11.30;8.90;;;;;;;9.80;34.99;103269.91;10372574;28;20274;-84
2022/03/19 01:28:28;;;;;;;13.27;9.67;;;;;;;10.56;34.13;103268.34;10388781;28;20538;-84
2022/03/19 01:33:30;;;;;;;12.73;8.90;;;;;;;10.11;34.26;103262.44;10369976;28;20267;-83
2022/03/19 01:38:35;;;;;;;12.43;9.07;;;;;;;9.97;34.52;103256.41;10371917;28;20553;-84
2022/03/19 01:43:37;;;;;;;12.67;8.53;;;;;;;9.91;34.66;103261.22;10371960;28;20271;-84
2022/03/19 01:48:40;;;;;;;16.27;9.23;;;;;;;9.93;34.82;103267.44;10369398;28;20252;-83
2022/03/19 01:53:43;;;;;;;17.87;9.53;;;;;;;10.06;34.34;103271.75;10368797;28;20201;-83
2022/03/19 01:58:45;;;;;;;14.27;9.33;;;;;;;10.38;34.21;103266.81;10373189;28;20744;-83
2022/03/19 02:03:47;;;;;;;13.90;9.33;;;;;;;9.62;35.26;103252.25;10379459;28;20634;-83
2022/03/19 02:08:49;;;;;;;12.60;9.00;;;;;;;10.02;34.53;103247.97;10387724;28;20255;-84
2022/03/19 02:13:52;;;;;;;13.03;8.53;;;;;;;9.61;34.91;103255.34;10369801;28;20236;-85
2022/03/19 02:18:57;;;;;;;12.57;8.93;;;;;;;9.63;35.63;103256.78;10369038;28;20287;-84
2022/03/19 02:29:20;;;;;;;10.03;8.67;;;;;;;8.69;36.85;103247.09;10379377;28;20224;-84
2022/03/19 02:34:22;;;;;;;13.83;8.83;;;;;;;8.57;37.65;103245.25;10370232;28;20676;-86
2022/03/19 02:39:30;;;;;;;11.23;8.60;;;;;;;9.21;36.35;103231.25;10388359;28;20634;-87
2022/03/19 02:44:34;;;;;;;12.27;8.60;;;;;;;7.93;38.76;103235.69;10353827;28;20201;-86
2022/03/19 02:49:36;;;;;;;14.03;9.10;;;;;;;9.09;36.20;103227.78;10377201;28;20225;-86
2022/03/19 02:54:38;;;;;;;16.23;9.50;;;;;;;8.41;37.58;103225.59;10369385;28;20256;-84
2022/03/19 02:59:41;;;;;;;12.47;9.30;;;;;;;9.24;36.25;103216.63;10353228;28;20649;-83
2022/03/19 03:04:43;;;;;;;15.50;10.33;;;;;;;8.60;36.96;103210.88;10377025;28;20221;-85
2022/03/19 03:09:46;;;;;;;12.37;8.90;;;;;;;7.98;37.63;103215.19;10366579;28;20252;-83
2022/03/19 03:14:48;;;;;;;13.87;9.90;;;;;;;8.92;36.64;103210.13;10379076;28;20229;-83
2022/03/19 03:19:51;;;;;;;14.80;9.30;;;;;;;9.30;36.03;103209.06;10370648;28;20221;-85
2022/03/19 03:24:53;;;;;;;13.40;10.00;;;;;;;8.99;35.88;103205.09;10365977;28;20263;-83
2022/03/19 03:29:57;;;;;;;14.07;9.90;;;;;;;9.11;35.61;103205.78;10361718;28;20209;-85
2022/03/19 03:34:59;;;;;;;11.73;8.67;;;;;;;8.55;36.82;103204.31;10359864;28;20264;-83
2022/03/19 03:40:01;;;;;;;11.87;9.87;;;;;;;8.95;36.04;103198.28;10374882;28;20225;-86
2022/03/19 03:45:04;;;;;;;15.37;9.77;;;;;;;9.73;34.80;103193.84;10338406;28;20220;-83
2022/03/19 03:50:06;;;;;;;12.97;9.33;;;;;;;9.38;35.36;103191.59;10359215;28;20197;-83
2022/03/19 03:55:09;;;;;;;12.10;9.33;;;;;;;9.37;35.27;103196.41;10373377;28;20225;-83
2022/03/19 04:00:11;;;;;;;15.33;9.07;;;;;;;9.49;35.03;103198.16;10361311;28;20295;-85
2022/03/19 04:05:13;;;;;;;12.37;8.63;;;;;;;8.86;35.54;103189.47;10367312;28;20281;-83
2022/03/19 04:10:16;;;;;;;14.50;9.83;;;;;;;8.42;36.91;103193.47;10379208;28;20201;-85
2022/03/19 04:15:19;;;;;;;13.20;10.27;;;;;;;8.95;36.01;103195.47;10358945;28;20279;-83
2022/03/19 04:20:22;;;;;;;16.00;9.67;;;;;;;8.51;36.31;103192.75;10341803;28;20229;-86
2022/03/19 04:25:26;;;;;;;11.50;9.53;;;;;;;8.76;36.23;103197.00;10365353;28;20201;-84
2022/03/19 04:30:28;;;;;;;13.13;9.83;;;;;;;7.44;38.03;103209.28;10346596;28;20201;-84
2022/03/19 04:40:52;;;;;;;16.37;9.97;;;;;;;8.40;36.92;103190.09;10370793;28;20217;-83
2022/03/19 04:45:54;;;;;;;15.20;10.53;;;;;;;8.77;36.00;103193.91;10359165;28;20201;-83
2022/03/19 04:50:57;;;;;;;13.33;9.20;;;;;;;8.47;36.41;103188.75;10342429;28;20213;-84
2022/03/19 04:55:59;;;;;;;16.83;10.03;;;;;;;7.98;37.67;103181.38;10362891;28;20228;-86
2022/03/19 05:01:02;;;;;;;11.00;9.90;;;;;;;8.26;37.41;103184.00;10365967;28;20216;-86
2022/03/19 05:06:04;;;;;;;14.10;8.60;;;;;;;8.51;36.67;103187.13;10364020;28;20213;-84
2022/03/19 05:11:12;;;;;;;12.93;9.47;;;;;;;8.13;37.48;103192.84;10372111;28;20275;-87
2022/03/19 05:16:15;;;;;;;12.73;9.27;;;;;;;8.75;36.24;103192.47;10353470;28;20323;-83
2022/03/19 05:21:17;;;;;;;12.93;9.37;;;;;;;7.86;37.88;103189.97;10367858;28;20257;-84
2022/03/19 05:26:20;;;;;;;16.47;10.13;;;;;;;8.67;36.40;103190.91;10363531;28;20236;-85
2022/03/19 05:31:22;;;;;;;13.83;9.80;;;;;;;8.31;37.28;103192.50;10365600;28;20248;-84
2022/03/19 05:36:26;;;;;;;17.10;10.17;;;;;;;8.36;37.50;103194.53;10349467;28;20683;-83
2022/03/19 05:41:30;;;;;;;17.90;10.27;;;;;;;8.77;36.75;103195.88;10351273;28;20248;-84
2022/03/19 05:46:36;;;;;;;14.50;9.67;;;;;;;8.48;36.96;103193.28;10343294;28;20585;-84
2022/03/19 05:51:39;;;;;;;12.27;9.70;;;;;;;7.14;39.81;103216.13;10357629;28;20708;-83
2022/03/19 05:56:43;;;;;;;13.43;8.90;;;;;;;8.46;36.77;103206.78;10346133;28;20276;-84
2022/03/19 06:01:45;;;;;;;11.77;9.40;;;;;;;8.33;37.34;103198.72;10363419;28;20376;-86
2022/03/19 06:06:48;;;;;;;14.10;9.43;;;;;;;8.57;37.27;103202.97;10347555;28;20233;-84
2022/03/19 06:11:50;;;;;;;18.40;9.83;;;;;;;9.55;35.20;103205.56;10347581;28;20614;-84
2022/03/19 06:16:53;;;;;;;13.17;9.60;;;;;;;9.54;35.21;103207.53;10359127;28;20241;-84
2022/03/19 06:21:55;;;;;;;15.20;9.83;;;;;;;9.50;35.32;103222.47;10345103;28;20784;-90
2022/03/19 06:26:57;;;;;;;17.93;9.10;;;;;;;7.61;39.08;103227.03;10345737;28;20229;-83
2022/03/19 06:32:00;;;;;;;13.30;9.53;;;;;;;8.97;36.53;103212.97;10352996;28;20272;-86
2022/03/19 06:37:20;;;;;;;13.93;9.13;;;;;;;9.23;36.17;103211.22;10353287;28;20527;-82
2022/03/19 06:42:23;;;;;;;13.97;8.70;;;;;;;8.76;37.03;103220.41;10356211;28;20251;-85
2022/03/19 06:47:25;;;;;;;14.67;8.73;;;;;;;8.86;37.02;103217.69;10349012;28;20258;-82
2022/03/19 06:52:28;;;;;;;13.53;8.63;;;;;;;8.00;37.98;103218.59;10341759;28;20918;-84
2022/03/19 06:57:31;;;;;;;13.17;8.13;;;;;;;8.31;37.88;103217.88;10351309;28;20249;-82
2022/03/19 07:02:45;;;;;;;10.27;8.07;;;;;;;8.11;38.28;103212.00;10358873;28;20282;-84
2022/03/19 07:07:48;;;;;;;12.97;8.73;;;;;;;8.26;38.45;103200.91;10366883;28;20578;-83
2022/03/19 07:12:52;;;;;;;13.83;8.37;;;;;;;8.38;37.70;103203.59;10353047;28;20209;-83
2022/03/19 07:18:02;;;;;;;9.93;7.60;;;;;;;8.99;37.00;103210.75;10365178;28;20253;-82
2022/03/19 07:23:06;;;;;;;12.10;7.87;;;;;;;9.67;35.79;103200.59;10347645;28;20253;-82
2022/03/19 07:28:11;;;;;;;12.70;9.00;;;;;;;8.92;37.69;103210.13;10350661;28;20291;-86
2022/03/19 07:33:14;;;;;;;14.07;7.70;;;;;;;7.70;38.90;103213.34;10331814;28;20236;-82
2022/03/19 07:38:16;;;;;;;13.53;8.00;;;;;;;8.47;38.08;103211.31;10349420;28;20609;-82
2022/03/19 07:43:21;;;;;;;17.50;7.97;;;;;;;8.73;37.25;103200.34;10329001;28;20302;-84
2022/03/19 07:48:23;;;;;;;14.23;7.27;;;;;;;7.47;39.57;103203.16;10360815;28;20252;-85
2022/03/19 07:53:29;;;;;;;12.53;7.50;;;;;;;8.84;37.48;103190.84;10370744;28;20622;-83
2022/03/19 07:58:31;;;;;;;15.90;7.83;;;;;;;9.10;37.23;103189.97;10345762;28;20229;-83
2022/03/19 08:03:34;;;;;;;10.50;6.63;;;;;;;9.94;35.64;103190.00;10348607;28;20275;-83
2022/03/19 08:08:37;;;;;;;9.87;5.67;;;;;;;9.19;36.76;103191.16;10354673;28;20232;-83
2022/03/19 08:13:40;;;;;;;10.13;6.40;;;;;;;8.95;36.59;103195.47;10354243;28;20316;-83
2022/03/19 08:18:42;;;;;;;12.03;6.90;;;;;;;9.43;36.53;103197.31;10348718;28;20383;-83
2022/03/19 08:23:47;;;;;;;11.20;6.00;;;;;;;9.16;36.97;103200.19;10365636;28;20323;-84
2022/03/19 08:28:49;;;;;;;12.73;6.33;;;;;;;10.11;35.09;103188.94;10341055;28;20236;-84
2022/03/19 08:33:52;;;;;;;8.13;5.30;;;;;;;10.85;33.35;103183.81;10344455;28;20228;-83
2022/03/19 08:44:15;;;;;;;10.60;5.63;;;;;;;10.75;33.47;103187.47;10346519;28;20259;-84
2022/03/19 08:49:17;;;;;;;9.70;5.20;;;;;;;9.93;33.94;103182.66;10342906;28;20696;-85
2022/03/19 08:54:23;;;;;;;9.47;4.57;;;;;;;10.34;33.71;103177.16;10347022;28;20825;-84
2022/03/19 08:59:25;;;;;;;11.03;5.00;;;;;;;10.79;31.75;103174.47;10365379;28;20217;-85
2022/03/19 09:04:27;;;;;;;8.20;4.23;;;;;;;10.02;33.08;103172.53;10359882;28;20621;-84
2022/03/19 09:09:30;;;;;;;8.57;3.93;;;;;;;10.69;31.35;103157.47;10344828;28;20236;-84
2022/03/19 09:14:53;;;;;;;9.13;4.13;;;;;;;11.76;30.56;103148.91;10344795;28;20323;-84
2022/03/19 09:19:55;;;;;;;9.27;4.30;;;;;;;12.40;29.98;103136.72;10344095;28;20275;-85
2022/03/19 09:24:58;;;;;;;8.67;4.33;;;;;;;11.12;30.82;103146.75;10343836;28;20236;-82
2022/03/19 09:30:02;;;;;;;6.90;3.77;;;;;;;10.77;30.85;103148.41;10343676;28;20614;-83
2022/03/19 09:35:05;;;;;;;8.57;3.67;;;;;;;10.24;31.77;103138.38;10362117;28;20551;-83
2022/03/19 09:40:08;;;;;;;7.60;3.20;;;;;;;11.06;30.54;103133.69;10362986;28;20213;-84
2022/03/19 09:45:11;;;;;;;7.80;3.27;;;;;;;10.57;31.50;103131.44;10353200;28;20237;-83
2022/03/19 09:50:14;;;;;;;6.37;3.57;;;;;;;12.12;28.11;103110.78;10372198;28;20279;-84
2022/03/19 09:55:17;;;;;;;7.93;3.53;;;;;;;11.76;28.24;103114.91;10372321;28;20233;-84
2022/03/19 10:00:22;;;;;;;5.93;2.70;;;;;;;11.18;27.72;103120.09;10367121;28;20205;-85
2022/03/19 10:10:55;;;;;;;4.37;1.90;;;;;;;12.40;24.43;103097.00;10370691;28;20251;-85
2022/03/19 10:15:58;;;;;;;4.00;1.73;;;;;;;12.41;22.90;103087.34;10366098;28;20488;-85
2022/03/19 10:21:03;;;;;;;4.60;1.70;;;;;;;12.07;22.99;103088.06;10355058;28;20209;-85
2022/03/19 10:26:06;;;;;;;4.43;1.50;;;;;;;11.99;22.67;103085.88;10357484;28;20602;-86
2022/03/19 10:31:28;;;;;;;3.80;1.33;;;;;;;11.99;23.66;103080.19;10355062;28;20671;-84
2022/03/19 10:36:37;;;;;;;3.03;0.90;;;;;;;12.86;21.80;103066.28;10369096;28;20550;-85
2022/03/19 10:41:40;;;;;;;3.43;1.00;;;;;;;13.58;20.13;103056.69;10330507;28;20253;-87
2022/03/19 10:46:48;;;;;;;3.20;1.00;;;;;;;11.90;21.06;103059.28;10352313;28;20233;-85
2022/03/19 10:51:56;;;;;;;3.30;0.77;;;;;;;12.53;19.64;103036.75;10365903;28;20671;-84
2022/03/19 10:57:00;;;;;;;3.70;0.90;;;;;;;12.14;21.10;103034.78;10356607;28;20220;-85
2022/03/19 11:02:03;;;;;;;3.23;0.73;;;;;;;12.07;20.74;103037.03;10339323;28;20232;-89
2022/03/19 11:07:09;;;;;;;3.00;0.70;;;;;;;11.58;20.88;103034.19;10353876;28;20511;-86
2022/03/19 11:12:21;;;;;;;4.33;1.00;;;;;;;11.66;20.80;103024.22;10364722;28;20213;-88
2022/03/19 11:17:33;;;;;;;2.27;0.73;;;;;;;13.45;20.21;102997.75;10354660;28;20237;-88
2022/03/19 11:22:46;;;;;;;3.90;1.00;;;;;;;13.82;20.41;102990.44;10392899;28;20217;-86
2022/03/19 11:27:50;;;;;;;4.03;1.20;;;;;;;12.88;20.27;102979.66;10363143;28;20213;-86
2022/03/19 11:33:05;;;;;;;4.33;1.20;;;;;;;13.04;20.17;102965.28;10358974;28;20217;-87
2022/03/19 11:38:20;;;;;;;1.73;0.83;;;;;;;13.70;20.40;102950.25;10367767;28;20267;-88
2022/03/19 11:43:31;;;;;;;1.73;0.80;;;;;;;13.50;19.13;102946.50;10347878;28;20252;-86
2022/03/19 11:48:35;;;;;;;1.73;0.50;;;;;;;13.28;18.98;102934.88;10365871;28;20241;-88
2022/03/19 11:53:55;;;;;;;4.40;0.70;;;;;;;12.95;19.30;102928.19;10361600;28;20232;-86
2022/03/19 11:59:04;;;;;;;3.90;0.83;;;;;;;13.42;19.95;102918.78;10364897;28;20669;-86
2022/03/19 12:04:08;;;;;;;2.43;0.83;;;;;;;13.30;20.01;102915.53;10351475;28;20264;-86
2022/03/19 12:09:10;;;;;;;2.33;0.90;;;;;;;13.51;19.95;102879.13;10348322;28;20268;-87
2022/03/19 12:14:15;;;;;;;2.27;1.07;;;;;;;14.74;18.32;102873.91;10352817;28;20550;-86
2022/03/19 12:19:54;;;;;;;2.00;0.57;;;;;;;13.92;19.27;102868.00;10348607;28;20255;-88
2022/03/19 12:25:13;;;;;;;2.50;0.90;;;;;;;13.73;18.98;102852.97;10345878;28;20248;-87
2022/03/19 12:30:15;;;;;;;1.33;0.60;;;;;;;13.18;19.69;102842.13;10350586;28;20591;-85
2022/03/19 12:35:18;;;;;;;2.03;0.70;;;;;;;12.74;18.44;102844.38;10318287;28;20210;-84
2022/03/19 12:40:27;;;;;;;2.43;0.53;;;;;;;13.37;17.84;102827.91;10341420;28;20240;-85
2022/03/19 12:45:40;;;;;;;2.13;0.50;;;;;;;13.09;18.77;102818.38;10315791;28;20723;-84
2022/03/19 12:50:54;;;;;;;2.63;0.80;;;;;;;14.17;17.64;102801.28;10327955;28;20213;-86
2022/03/19 12:56:09;;;;;;;6.43;1.00;;;;;;;13.04;17.65;102794.91;10343928;28;20221;-89
2022/03/19 13:01:15;;;;;;;3.50;0.90;;;;;;;13.54;17.68;102794.13;10358838;28;20209;-87
2022/03/19 13:06:26;;;;;;;1.93;0.70;;;;;;;13.58;17.22;102771.59;10352893;28;20233;-86
2022/03/19 13:11:40;;;;;;;1.27;0.70;;;;;;;13.23;17.61;102747.44;10346785;28;20335;-86
2022/03/19 13:16:44;;;;;;;2.50;0.77;;;;;;;13.51;17.39;102751.25;10362399;28;20548;-85
2022/03/19 13:21:50;;;;;;;1.87;0.33;;;;;;;13.70;16.91;102734.19;10375994;28;20231;-85
2022/03/19 13:26:53;;;;;;;3.10;0.90;;;;;;;13.68;16.95;102736.50;10361654;28;20198;-85
2022/03/19 13:31:58;;;;;;;2.97;1.03;;;;;;;14.13;16.36;102727.06;10358601;28;20209;-89
2022/03/19 13:37:12;;;;;;;3.40;1.03;;;;;;;14.62;16.95;102709.28;10372494;28;20847;-84
2022/03/19 13:42:16;;;;;;;4.07;0.97;;;;;;;13.13;17.71;102713.53;10350883;28;20222;-84
2022/03/19 13:47:20;;;;;;;6.43;0.90;;;;;;;14.01;16.93;102688.94;10350712;28;20513;-88
2022/03/19 13:52:33;;;;;;;2.20;1.23;;;;;;;13.82;17.84;102686.19;10383445;28;20251;-87
2022/03/19 13:57:45;;;;;;;2.83;1.07;;;;;;;13.25;18.21;102676.97;10403223;28;20232;-88
2022/03/19 14:03:04;;;;;;;3.97;1.63;;;;;;;14.45;17.88;102665.56;10382558;28;20274;-88
2022/03/19 14:08:10;;;;;;;2.07;0.80;;;;;;;14.03;17.73;102664.72;10370753;28;20201;-86
2022/03/19 14:13:47;;;;;;;3.53;1.30;;;;;;;13.60;18.61;102650.78;10375356;28;20225;-85
2022/03/19 14:18:51;;;;;;;3.47;1.27;;;;;;;12.70;18.07;102665.31;10349149;28;20643;-86
2022/03/19 14:23:54;;;;;;;5.00;1.10;;;;;;;13.19;18.06;102653.50;10346933;28;20324;-87
2022/03/19 14:28:57;;;;;;;3.50;0.97;;;;;;;13.53;18.25;102647.47;10331293;28;20214;-84
2022/03/19 14:34:00;;;;;;;5.27;1.20;;;;;;;13.28;18.54;102647.94;10370055;28;20225;-89
2022/03/19 14:39:04;;;;;;;5.17;1.43;;;;;;;12.93;18.92;102657.91;10385256;28;20653;-87
2022/03/19 14:44:06;;;;;;;4.17;1.20;;;;;;;12.95;19.05;102630.03;10362137;28;20323;-87
2022/03/19 14:49:08;;;;;;;5.17;0.90;;;;;;;12.22;19.30;102638.22;10369801;28;21031;-86
2022/03/19 14:54:11;;;;;;;3.43;1.00;;;;;;;13.02;19.06;102626.81;10368741;28;20237;-85
2022/03/19 14:59:14;;;;;;;2.33;0.70;;;;;;;13.60;18.85;102615.78;10354522;28;20303;-84
2022/03/19 15:04:16;;;;;;;6.17;1.10;;;;;;;13.18;18.79;102616.88;10359047;28;20256;-86
2022/03/19 15:09:38;;;;;;;3.77;0.73;;;;;;;12.67;19.35;102623.38;10345916;28;20267;-87
2022/03/19 15:14:42;;;;;;;3.33;0.60;;;;;;;12.62;19.02;102606.44;10374678;28;20280;-84
2022/03/19 15:19:45;;;;;;;7.03;0.90;;;;;;;12.60;19.33;102588.84;10350479;28;20285;-85
2022/03/19 15:24:48;;;;;;;3.03;0.57;;;;;;;14.45;18.44;102563.09;10336238;28;20252;-85
2022/03/19 15:29:52;;;;;;;3.57;1.10;;;;;;;14.64;18.56;102569.44;10349872;28;20523;-86
2022/03/19 15:34:54;;;;;;;7.17;1.57;;;;;;;12.99;20.17;102564.97;10346631;28;20220;-84
2022/03/19 15:39:57;;;;;;;1.87;0.83;;;;;;;11.66;21.51;102587.84;10348155;28;20782;-85
2022/03/19 15:44:59;;;;;;;3.17;0.80;;;;;;;12.17;21.43;102577.56;10350208;28;20269;-85
2022/03/19 15:50:04;;;;;;;4.30;0.90;;;;;;;11.80;21.37;102588.81;10353830;28;20237;-85
2022/03/19 15:55:06;;;;;;;4.70;1.20;;;;;;;12.22;21.16;102590.00;10367608;28;20346;-85
2022/03/19 16:00:11;;;;;;;2.73;0.80;;;;;;;12.05;20.78;102587.66;10346114;28;20228;-85
2022/03/19 16:05:13;;;;;;;1.57;0.50;;;;;;;12.82;20.37;102566.34;10347095;28;20268;-85
2022/03/19 16:10:16;;;;;;;4.40;0.70;;;;;;;11.64;21.60;102578.84;10360394;28;20630;-87
2022/03/19 16:15:18;;;;;;;1.73;0.50;;;;;;;11.53;21.86;102582.91;10358804;28;20709;-84
2022/03/19 16:20:20;;;;;;;3.37;0.90;;;;;;;12.48;20.84;102560.13;10361267;28;20205;-84
2022/03/19 16:25:23;;;;;;;3.93;0.60;;;;;;;12.52;21.65;102576.22;10351216;28;20283;-85
2022/03/19 16:30:27;;;;;;;2.47;0.43;;;;;;;12.45;21.93;102566.41;10349499;28;20243;-83
2022/03/19 16:35:31;;;;;;;3.20;1.07;;;;;;;11.72;22.81;102576.19;10350187;28;20263;-84
2022/03/19 16:40:33;;;;;;;3.60;1.27;;;;;;;11.23;23.39;102567.09;10345604;28;20298;-83
2022/03/19 16:45:36;;;;;;;2.80;0.60;;;;;;;12.60;21.85;102559.63;10355966;28;20255;-84
2022/03/19 16:50:38;;;;;;;3.70;1.00;;;;;;;12.78;22.04;102553.09;10356688;28;20232;-85
2022/03/19 16:55:41;;;;;;;2.97;0.70;;;;;;;12.74;22.10;102535.00;10351238;28;20245;-86
2022/03/19 17:00:43;;;;;;;4.23;0.70;;;;;;;11.64;22.87;102547.69;10357661;28;20236;-86
2022/03/19 17:05:45;;;;;;;2.50;0.60;;;;;;;11.98;22.22;102545.50;10353243;28;20244;-85
2022/03/19 17:10:48;;;;;;;2.90;0.70;;;;;;;11.25;23.06;102554.31;10354216;28;20282;-85
2022/03/19 17:15:51;;;;;;;3.33;0.80;;;;;;;11.86;22.31;102547.94;10358920;28;20279;-84
2022/03/19 17:20:53;;;;;;;5.77;1.40;;;;;;;12.36;22.95;102539.88;10358730;28;20228;-86
2022/03/19 17:25:55;;;;;;;1.93;1.00;;;;;;;11.52;23.46;102542.44;10362859;28;20264;-84
2022/03/19 17:31:02;;;;;;;4.63;0.93;;;;;;;11.36;24.08;102540.94;10356582;28;20645;-84
2022/03/19 17:36:04;;;;;;;2.60;0.80;;;;;;;11.26;24.84;102538.19;10350715;28;20225;-85
2022/03/19 17:41:07;;;;;;;2.77;0.80;;;;;;;11.18;25.19;102539.66;10356770;28;20283;-85
2022/03/19 17:46:11;;;;;;;2.47;1.30;;;;;;;10.93;25.65;102537.94;10350060;28;20253;-85
2022/03/19 17:51:14;;;;;;;2.87;0.83;;;;;;;11.60;24.46;102535.25;10364606;28;20237;-84
2022/03/19 17:56:16;;;;;;;3.23;1.00;;;;;;;11.29;25.08;102543.25;10357790;28;21067;-86
2022/03/19 18:01:23;;;;;;;3.63;0.60;;;;;;;12.01;24.27;102530.75;10353252;28;20307;-85
2022/03/19 18:06:26;;;;;;;3.40;0.90;;;;;;;11.04;25.32;102533.00;10356308;28;20253;-85
2022/03/19 18:11:28;;;;;;;3.73;1.03;;;;;;;11.47;24.65;102534.84;10350715;28;20232;-85
2022/03/19 18:16:32;;;;;;;4.33;0.93;;;;;;;12.02;24.19;102528.75;10354618;28;20299;-84
2022/03/19 18:21:36;;;;;;;3.70;1.50;;;;;;;12.30;23.44;102526.94;10350995;28;20355;-86
2022/03/19 18:26:38;;;;;;;2.60;1.10;;;;;;;11.58;24.54;102535.56;10355082;28;20249;-87
2022/03/19 18:31:40;;;;;;;2.10;0.90;;;;;;;11.41;24.91;102538.00;10367496;28;20628;-85
2022/03/19 18:36:43;;;;;;;4.43;1.13;;;;;;;12.12;24.05;102534.28;10353047;28;20228;-86
2022/03/19 18:41:46;;;;;;;4.60;1.33;;;;;;;11.72;24.20;102530.00;10356612;28;20229;-85
2022/03/19 18:46:48;;;;;;;2.77;1.10;;;;;;;11.58;24.20;102524.22;10351078;28;20249;-84
2022/03/19 18:51:50;;;;;;;4.07;1.23;;;;;;;11.75;24.55;102518.06;10355120;28;20553;-87
2022/03/19 18:56:53;;;;;;;2.83;1.10;;;;;;;11.81;24.24;102512.00;10352324;28;20755;-84
2022/03/19 19:01:55;;;;;;;2.27;1.27;;;;;;;11.41;24.81;102512.53;10367033;28;20306;-85
2022/03/19 19:06:58;;;;;;;4.00;1.60;;;;;;;11.56;24.69;102515.19;10351329;28;20306;-85
2022/03/19 19:12:01;;;;;;;3.40;1.53;;;;;;;11.30;25.01;102511.81;10355855;28;20240;-85
2022/03/19 19:17:04;;;;;;;5.77;1.30;;;;;;;10.74;25.77;102498.19;10348318;28;20267;-85
2022/03/19 19:22:08;;;;;;;3.43;1.33;;;;;;;11.83;24.91;102491.88;10351328;28;20232;-86
2022/03/19 19:27:11;;;;;;;5.77;1.43;;;;;;;11.80;24.34;102493.31;10348157;28;20245;-86
2022/03/19 19:32:15;;;;;;;3.60;1.20;;;;;;;11.23;25.49;102497.16;10360145;28;20248;-84
2022/03/19 19:37:18;;;;;;;3.73;1.17;;;;;;;11.67;25.35;102493.22;10356721;28;20283;-84
2022/03/19 19:42:20;;;;;;;4.33;1.93;;;;;;;12.18;24.13;102477.19;10359308;28;20355;-85
2022/03/19 19:47:23;;;;;;;8.23;3.03;;;;;;;11.58;25.03;102475.22;10331267;28;20321;-91
2022/03/19 19:52:26;;;;;;;4.30;1.90;;;;;;;11.25;24.98;102466.53;10365272;28;20205;-91
2022/03/19 20:02:56;;;;;;;5.63;2.13;;;;;;;9.96;27.05;102461.47;10364838;28;20201;-91
2022/03/19 20:08:00;;;;;;;5.67;2.10;;;;;;;10.38;26.45;102451.56;10364345;28;20227;-87
2022/03/19 20:13:04;;;;;;;5.50;2.00;;;;;;;10.63;26.10;102445.69;10346835;28;20236;-89
2022/03/19 20:18:07;;;;;;;2.90;1.90;;;;;;;10.51;26.23;102444.41;10369461;28;20225;-85
2022/03/19 20:23:13;;;;;;;5.07;1.87;;;;;;;11.26;25.00;102436.25;10359005;28;20197;-90
2022/03/19 20:28:16;;;;;;;5.83;2.77;;;;;;;9.80;27.02;102430.81;10360286;28;20220;-87
2022/03/19 20:33:20;;;;;;;4.43;2.63;;;;;;;9.70;26.94;102431.72;10360358;28;20273;-87
2022/03/19 20:38:22;;;;;;;6.43;3.30;;;;;;;10.04;26.91;102431.78;10361294;28;20197;-87
2022/03/19 20:43:25;;;;;;;6.57;2.97;;;;;;;10.38;26.41;102437.41;10345868;28;20318;-85
2022/03/19 20:48:29;;;;;;;3.80;2.70;;;;;;;10.34;26.73;102442.84;10343161;28;20334;-86
2022/03/19 20:53:32;;;;;;;4.53;3.00;;;;;;;9.76;27.35;102436.19;10345150;28;20231;-89
2022/03/19 20:58:34;;;;;;;6.70;3.63;;;;;;;10.72;26.40;102432.59;10278585;28;20580;-86
2022/03/19 21:03:37;;;;;;;6.07;3.60;;;;;;;10.55;26.93;102425.72;10303851;28;20315;-87
2022/03/19 21:08:40;;;;;;;4.60;3.50;;;;;;;10.56;26.71;102433.06;10321644;28;20249;-90
2022/03/19 21:13:45;;;;;;;6.57;4.10;;;;;;;9.76;27.81;102429.69;10298073;28;20233;-89
2022/03/19 21:18:47;;;;;;;6.33;4.57;;;;;;;10.79;26.21;102423.75;10304348;28;20577;-90
2022/03/19 21:23:53;;;;;;;6.20;4.10;;;;;;;11.17;26.11;102433.22;10312069;28;20299;-90
2022/03/19 21:28:56;;;;;;;10.17;4.67;;;;;;;10.10;27.48;102419.28;10279417;28;20241;-86
2022/03/19 21:34:00;;;;;;;7.17;5.10;;;;;;;11.03;26.23;102409.63;10307526;28;20289;-89
2022/03/19 21:44:23;;;;;;;9.67;6.47;;;;;;;10.08;26.83;102402.63;10304160;28;20253;-84
2022/03/19 21:49:27;;;;;;;10.77;6.23;;;;;;;10.75;26.83;102389.56;10305991;28;20233;-85
2022/03/19 21:54:29;;;;;;;11.73;6.60;;;;;;;11.10;26.17;102388.31;10310030;28;20260;-85
2022/03/19 21:59:32;;;;;;;10.03;7.27;;;;;;;9.85;27.55;102386.41;10366299;28;20240;-86
2022/03/19 22:04:35;;;;;;;9.20;6.73;;;;;;;10.43;27.20;102389.31;10356382;28;20556;-85
2022/03/19 22:09:37;;;;;;;11.93;8.60;;;;;;;10.44;26.82;102379.69;10356069;28;20209;-84
2022/03/19 22:14:40;;;;;;;12.13;8.50;;;;;;;9.82;27.56;102370.06;10349889;28;20275;-84
2022/03/19 22:25:05;;;;;;;14.20;9.63;;;;;;;9.67;26.50;102365.38;10350709;28;20257;-85
2022/03/19 22:30:09;;;;;;;13.80;10.57;;;;;;;9.61;25.85;102366.53;10349976;28;20245;-89
2022/03/19 22:35:13;;;;;;;15.83;12.10;;;;;;;8.41;27.29;102363.03;10348614;28;20618;-90
2022/03/19 22:40:19;;;;;;;13.80;11.33;;;;;;;9.85;25.47;102360.97;10361477;28;20290;-91
2022/03/19 22:45:24;;;;;;;15.53;11.60;;;;;;;8.91;25.75;102353.63;10359030;28;20303;-86
2022/03/19 22:50:28;;;;;;;18.13;13.03;;;;;;;9.64;25.44;102345.34;10371568;28;20253;-86
2022/03/19 22:55:32;;;;;;;15.00;12.70;;;;;;;8.75;26.22;102343.53;10371306;28;20332;-86
2022/03/19 23:00:44;;;;;;;14.93;11.87;;;;;;;8.98;26.41;102328.75;10354545;28;20243;-89
2022/03/19 23:05:48;;;;;;;17.53;12.60;;;;;;;8.62;27.02;102340.16;10375789;28;20268;-89
2022/03/19 23:16:12;;;;;;;16.13;11.60;;;;;;;9.30;27.12;102298.13;10350659;28;20787;-86
2022/03/19 23:21:15;;;;;;;18.73;12.07;;;;;;;9.89;26.24;102288.63;10335117;28;20233;-89
2022/03/19 23:26:19;;;;;;;18.80;12.10;;;;;;;9.41;26.79;102287.59;10366991;28;20594;-91
2022/03/19 23:31:21;;;;;;;17.53;12.00;;;;;;;9.56;26.75;102295.13;10352134;28;20233;-88
2022/03/19 23:36:24;;;;;;;15.80;12.17;;;;;;;10.03;26.10;102289.63;10348530;28;20224;-87
2022/03/19 23:41:28;;;;;;;16.10;12.40;;;;;;;9.78;26.59;102275.75;10353087;28;20501;-87
2022/03/19 23:46:32;;;;;;;17.10;11.50;;;;;;;9.25;27.50;102267.09;10357468;28;20283;-89
2022/03/19 23:51:35;;;;;;;14.77;11.30;;;;;;;9.29;27.35;102256.91;10364314;28;20264;-90
2022/03/19 23:56:38;;;;;;;15.03;11.87;;;;;;;9.26;26.96;102242.53;10349176;28;20221;-89
